Time;durP1;ratioP1;P1;durP2;ratioP2;P2;SDS_P1;SDS_P2;PMS_P1;PMS_P2;Temp;Humidity;BMP_temperature;BMP_pressure;BME280_temperature;BME280_humidity;BME280_pressure;Samples;Min_cycle;Max_cycle;Signal;HPM_P1;HPM_P2
2020/04/20 00:00:28;;;;;;;13.5;9.9;;;;;;;;;;;;;
2020/04/20 00:02:55;;;;;;;12.3;9.5;;;;;;;;;;;;;
2020/04/20 00:05:22;;;;;;;12.5;9.8;;;;;;;;;;;;;
2020/04/20 00:07:47;;;;;;;13.8;9.7;;;;;;;;;;;;;
2020/04/20 00:10:12;;;;;;;12.3;9.4;;;;;;;;;;;;;
2020/04/20 00:12:40;;;;;;;12;9.1;;;;;;;;;;;;;
2020/04/20 00:15:05;;;;;;;13.7;9.8;;;;;;;;;;;;;
2020/04/20 00:17:32;;;;;;;12;9.4;;;;;;;;;;;;;
2020/04/20 00:19:57;;;;;;;11.9;9.5;;;;;;;;;;;;;
2020/04/20 00:22:22;;;;;;;11.8;9.4;;;;;;;;;;;;;
2020/04/20 00:24:48;;;;;;;14.2;9.4;;;;;;;;;;;;;
2020/04/20 00:27:13;;;;;;;13.9;9.5;;;;;;;;;;;;;
2020/04/20 00:29:39;;;;;;;11.2;9;;;;;;;;;;;;;
2020/04/20 00:32:06;;;;;;;12.1;9.2;;;;;;;;;;;;;
2020/04/20 00:34:31;;;;;;;14.2;9.8;;;;;;;;;;;;;
2020/04/20 00:36:57;;;;;;;12.2;9;;;;;;;;;;;;;
2020/04/20 00:39:22;;;;;;;12.8;9.2;;;;;;;;;;;;;
2020/04/20 00:41:48;;;;;;;14.8;8.9;;;;;;;;;;;;;
2020/04/20 00:44:13;;;;;;;14.9;9;;;;;;;;;;;;;
2020/04/20 00:46:38;;;;;;;14.5;9.2;;;;;;;;;;;;;
2020/04/20 00:49:04;;;;;;;14.7;8.9;;;;;;;;;;;;;
2020/04/20 00:51:31;;;;;;;14;9.4;;;;;;;;;;;;;
2020/04/20 00:53:56;;;;;;;13.4;8.9;;;;;;;;;;;;;
2020/04/20 00:56:21;;;;;;;16;9.3;;;;;;;;;;;;;
2020/04/20 00:58:46;;;;;;;11.2;8.5;;;;;;;;;;;;;
2020/04/20 01:01:15;;;;;;;13.7;8.6;;;;;;;;;;;;;
2020/04/20 01:03:49;;;;;;;13.6;8.6;;;;;;;;;;;;;
2020/04/20 01:06:24;;;;;;;13.3;9;;;;;;;;;;;;;
2020/04/20 01:13:30;;;;;;;14;9;;;;;;;;;;;;;
2020/04/20 01:15:50;;;;;;;13.7;8.7;;;;;;;;;;;;;
2020/04/20 01:18:16;;;;;;;15.7;8.7;;;;;;;;;;;;;
2020/04/20 01:20:41;;;;;;;11.8;8.5;;;;;;;;;;;;;
2020/04/20 01:23:10;;;;;;;13.4;8.3;;;;;;;;;;;;;
2020/04/20 01:25:35;;;;;;;11.5;8.5;;;;;;;;;;;;;
2020/04/20 01:28:00;;;;;;;12.1;8.3;;;;;;;;;;;;;
2020/04/20 01:30:25;;;;;;;13.4;8.3;;;;;;;;;;;;;
2020/04/20 01:32:50;;;;;;;13.3;8.2;;;;;;;;;;;;;
2020/04/20 01:35:15;;;;;;;12.1;8.1;;;;;;;;;;;;;
2020/04/20 01:37:42;;;;;;;15.9;8.6;;;;;;;;;;;;;
2020/04/20 01:40:07;;;;;;;14;8.8;;;;;;;;;;;;;
2020/04/20 01:42:34;;;;;;;11.5;8;;;;;;;;;;;;;
2020/04/20 01:44:59;;;;;;;13;8;;;;;;;;;;;;;
2020/04/20 01:47:26;;;;;;;14.2;7.8;;;;;;;;;;;;;
2020/04/20 01:49:51;;;;;;;13.1;8.2;;;;;;;;;;;;;
2020/04/20 01:52:17;;;;;;;13.2;8.2;;;;;;;;;;;;;
2020/04/20 01:54:42;;;;;;;12.7;8.2;;;;;;;;;;;;;
2020/04/20 01:57:08;;;;;;;11.8;8.1;;;;;;;;;;;;;
2020/04/20 01:59:33;;;;;;;14.1;7.9;;;;;;;;;;;;;
2020/04/20 02:02:00;;;;;;;12.9;8.2;;;;;;;;;;;;;
2020/04/20 02:04:25;;;;;;;12;8.4;;;;;;;;;;;;;
2020/04/20 02:06:52;;;;;;;14.2;8.2;;;;;;;;;;;;;
2020/04/20 02:09:16;;;;;;;15.3;9;;;;;;;;;;;;;
2020/04/20 02:11:41;;;;;;;12.9;8.3;;;;;;;;;;;;;
2020/04/20 02:14:17;;;;;;;13.8;8.3;;;;;;;;;;;;;
2020/04/20 02:19:08;;;;;;;15.7;8.8;;;;;;;;;;;;;
2020/04/20 02:21:23;;;;;;;14.4;8.9;;;;;;;;;;;;;
2020/04/20 02:23:48;;;;;;;14.2;8.7;;;;;;;;;;;;;
2020/04/20 02:26:14;;;;;;;12.3;8.5;;;;;;;;;;;;;
2020/04/20 02:28:39;;;;;;;13.4;9;;;;;;;;;;;;;
2020/04/20 02:31:04;;;;;;;12.8;8.5;;;;;;;;;;;;;
2020/04/20 02:33:30;;;;;;;17.4;9.4;;;;;;;;;;;;;
2020/04/20 02:35:55;;;;;;;15.2;9.1;;;;;;;;;;;;;
2020/04/20 02:38:20;;;;;;;15.7;9.5;;;;;;;;;;;;;
2020/04/20 02:40:45;;;;;;;17.2;9.7;;;;;;;;;;;;;
2020/04/20 02:43:10;;;;;;;15.4;10.2;;;;;;;;;;;;;
2020/04/20 02:45:35;;;;;;;14.9;9.9;;;;;;;;;;;;;
2020/04/20 02:48:01;;;;;;;17.3;10.1;;;;;;;;;;;;;
2020/04/20 02:50:26;;;;;;;16.8;10.1;;;;;;;;;;;;;
2020/04/20 02:52:55;;;;;;;16.4;9.9;;;;;;;;;;;;;
2020/04/20 02:55:20;;;;;;;13.9;9.7;;;;;;;;;;;;;
2020/04/20 02:57:45;;;;;;;15.5;10.4;;;;;;;;;;;;;
2020/04/20 03:00:11;;;;;;;14.4;10.2;;;;;;;;;;;;;
2020/04/20 03:02:36;;;;;;;14.7;10.4;;;;;;;;;;;;;
2020/04/20 03:05:01;;;;;;;19.2;11.1;;;;;;;;;;;;;
2020/04/20 03:07:27;;;;;;;13.6;10.4;;;;;;;;;;;;;
2020/04/20 03:09:52;;;;;;;15.2;11;;;;;;;;;;;;;
2020/04/20 03:12:18;;;;;;;13.7;10.7;;;;;;;;;;;;;
2020/04/20 03:14:43;;;;;;;16.7;11.2;;;;;;;;;;;;;
2020/04/20 03:17:09;;;;;;;14.7;11;;;;;;;;;;;;;
2020/04/20 03:19:34;;;;;;;15.4;10.7;;;;;;;;;;;;;
2020/04/20 03:22:00;;;;;;;14.1;10.6;;;;;;;;;;;;;
2020/04/20 03:24:25;;;;;;;15.6;10.6;;;;;;;;;;;;;
2020/04/20 03:26:52;;;;;;;16.1;11.1;;;;;;;;;;;;;
2020/04/20 03:29:17;;;;;;;15.8;10.7;;;;;;;;;;;;;
2020/04/20 03:31:43;;;;;;;14.9;10.9;;;;;;;;;;;;;
2020/04/20 03:34:08;;;;;;;15;10.8;;;;;;;;;;;;;
2020/04/20 03:36:35;;;;;;;14;10.1;;;;;;;;;;;;;
2020/04/20 03:39:00;;;;;;;16;10.5;;;;;;;;;;;;;
2020/04/20 03:41:27;;;;;;;15.5;10.4;;;;;;;;;;;;;
2020/04/20 03:43:52;;;;;;;15;10.3;;;;;;;;;;;;;
2020/04/20 03:46:21;;;;;;;15.4;10.2;;;;;;;;;;;;;
2020/04/20 03:48:46;;;;;;;14.1;10.1;;;;;;;;;;;;;
2020/04/20 03:51:11;;;;;;;13.6;9.8;;;;;;;;;;;;;
2020/04/20 03:53:36;;;;;;;14.6;10.4;;;;;;;;;;;;;
2020/04/20 03:56:02;;;;;;;17.8;10.5;;;;;;;;;;;;;
2020/04/20 03:58:27;;;;;;;13.9;10.8;;;;;;;;;;;;;
2020/04/20 04:02:31;;;;;;;15.2;10.7;;;;;;;10.78;76.07227;934.048;;;;
2020/04/20 04:04:57;;;;;;;16.1;10.2;;;;;;;10.77;75.9209;934.0424;;;;
2020/04/20 04:07:22;;;;;;;15.7;11.2;;;;;;;10.62;76.76367;933.9227;;;;
2020/04/20 04:09:47;;;;;;;16.2;11.2;;;;;;;10.74;76.24902;934.0535;;;;
2020/04/20 04:12:12;;;;;;;15.2;10.9;;;;;;;10.8;75.68848;934.0297;;;;
2020/04/20 04:14:39;;;;;;;15.4;10.7;;;;;;;10.79;76.39355;934.0193;;;;
2020/04/20 04:17:04;;;;;;;15.1;10.9;;;;;;;10.81;76.49023;934.0672;;;;
2020/04/20 04:19:30;;;;;;;14.2;11.1;;;;;;;10.68;76.5;934.0239;;;;
2020/04/20 04:21:55;;;;;;;19.3;12.1;;;;;;;10.6;78.24609;934.0593;;;;
2020/04/20 04:24:20;;;;;;;15.6;11.3;;;;;;;10.51;77.72754;934.0359;;;;
2020/04/20 04:26:49;;;;;;;16.9;11.7;;;;;;;10.42;77.72266;934.0508;;;;
2020/04/20 04:31:45;;;;;;;17.5;11.4;;;;;;;10.61;76.69336;934.0442;;;;
2020/04/20 04:34:14;;;;;;;16.1;11.8;;;;;;;10.64;77.22461;934.0764;;;;
2020/04/20 04:36:41;;;;;;;16.1;11.3;;;;;;;10.68;77.05957;934.0669;;;;
2020/04/20 04:39:07;;;;;;;16.1;11.3;;;;;;;10.74;76.88867;934.1188;;;;
2020/04/20 04:41:32;;;;;;;16.2;11;;;;;;;10.8;76.14551;934.0449;;;;
2020/04/20 04:43:57;;;;;;;16.6;11.5;;;;;;;10.78;76.38281;934.0703;;;;
2020/04/20 04:46:22;;;;;;;18;11.9;;;;;;;10.65;77.85449;934.0779;;;;
2020/04/20 04:48:47;;;;;;;17.4;11.3;;;;;;;10.73;77.2168;934.0709;;;;
2020/04/20 04:51:15;;;;;;;16.1;11.6;;;;;;;10.75;76.42285;934.0814;;;;
2020/04/20 04:53:41;;;;;;;15.4;11.5;;;;;;;10.74;77.13965;934.1069;;;;
2020/04/20 04:56:06;;;;;;;13.3;10.7;;;;;;;10.8;76.33789;934.122;;;;
2020/04/20 04:58:31;;;;;;;16.1;11.6;;;;;;;10.76;76.51465;934.1021;;;;
2020/04/20 05:00:56;;;;;;;18.4;11.8;;;;;;;10.81;76.16992;934.0823;;;;
2020/04/20 05:03:21;;;;;;;18;12.3;;;;;;;10.77;76.36914;934.032;;;;
2020/04/20 05:05:46;;;;;;;15.2;11.5;;;;;;;10.76;75.7832;934.0432;;;;
2020/04/20 05:08:16;;;;;;;15.6;11.9;;;;;;;10.69;77.49609;934.0159;;;;
2020/04/20 05:10:42;;;;;;;16.3;11.3;;;;;;;10.75;76.39746;933.9484;;;;
2020/04/20 05:13:15;;;;;;;14.6;12;;;;;;;10.77;76.63086;933.9269;;;;
2020/04/20 05:15:40;;;;;;;19.1;12.4;;;;;;;10.68;76.36523;933.8973;;;;
2020/04/20 05:18:11;;;;;;;17.5;12.1;;;;;;;10.75;76.0332;933.8783;;;;
2020/04/20 05:20:36;;;;;;;16.6;12;;;;;;;10.8;76.55664;933.9843;;;;
2020/04/20 05:23:03;;;;;;;16;11.7;;;;;;;10.82;76.27246;933.9902;;;;
2020/04/20 05:25:30;;;;;;;17.3;12.7;;;;;;;10.76;76.83496;933.9978;;;;
2020/04/20 05:27:58;;;;;;;18.7;12.8;;;;;;;10.79;76.40527;933.9532;;;;
2020/04/20 05:30:23;;;;;;;17;12;;;;;;;10.76;76.16016;933.9548;;;;
2020/04/20 05:32:48;;;;;;;19.1;12.4;;;;;;;10.81;75.54199;933.923;;;;
2020/04/20 05:35:17;;;;;;;17.5;12.8;;;;;;;10.68;76.2832;933.9451;;;;
2020/04/20 05:37:48;;;;;;;18.8;12.8;;;;;;;10.7;76.24121;933.9149;;;;
2020/04/20 05:40:13;;;;;;;16.7;12.1;;;;;;;10.8;75.7666;933.9261;;;;
2020/04/20 05:42:42;;;;;;;17.4;12.2;;;;;;;10.82;75.00488;933.9098;;;;
2020/04/20 05:45:07;;;;;;;19.4;12.3;;;;;;;10.88;74.59473;933.8812;;;;
2020/04/20 05:47:32;;;;;;;18.3;12.1;;;;;;;10.92;74.0166;933.9512;;;;
2020/04/20 05:50:01;;;;;;;17.5;12.1;;;;;;;10.91;74.40527;933.9441;;;;
2020/04/20 05:52:24;;;;;;;17.1;12.5;;;;;;;10.83;74.91602;933.9719;;;;
2020/04/20 05:54:54;;;;;;;18.6;12.7;;;;;;;10.69;75.29102;933.9881;;;;
2020/04/20 05:57:28;;;;;;;17.7;12.8;;;;;;;10.71;76.50488;933.9611;;;;
2020/04/20 05:59:53;;;;;;;17.8;12.7;;;;;;;10.78;75.30859;933.9349;;;;
2020/04/20 06:02:22;;;;;;;20.1;12.6;;;;;;;10.87;75.42578;933.968;;;;
2020/04/20 06:04:47;;;;;;;17.8;12.1;;;;;;;10.96;75.37305;933.9792;;;;
2020/04/20 06:07:19;;;;;;;17.4;12.5;;;;;;;10.96;74.95117;933.9561;;;;
2020/04/20 06:09:48;;;;;;;15.5;11.9;;;;;;;10.95;73.1543;933.9099;;;;
2020/04/20 06:12:13;;;;;;;17.9;11.8;;;;;;;10.95;73.04004;933.9242;;;;
2020/04/20 06:14:41;;;;;;;17.1;11.6;;;;;;;10.98;73.43262;933.8653;;;;
2020/04/20 06:17:06;;;;;;;16.1;11.5;;;;;;;10.98;73.18164;933.8828;;;;
2020/04/20 06:19:34;;;;;;;14.6;11.8;;;;;;;11.07;73.88281;933.8521;;;;
2020/04/20 06:22:04;;;;;;;14.8;11.2;;;;;;;11.13;73.3916;933.8513;;;;
2020/04/20 06:24:29;;;;;;;16;12.1;;;;;;;11.2;73.93848;933.8481;;;;
2020/04/20 06:26:55;;;;;;;15.4;11;;;;;;;11.27;72.48828;933.8444;;;;
2020/04/20 06:29:21;;;;;;;15.4;11.4;;;;;;;11.1;72.80078;933.7581;;;;
2020/04/20 06:31:51;;;;;;;17.2;12.5;;;;;;;11.09;74.35547;933.782;;;;
2020/04/20 06:34:16;;;;;;;15.8;12.2;;;;;;;11.15;73.43945;933.7573;;;;
2020/04/20 06:36:42;;;;;;;16.1;11.8;;;;;;;11.21;73.81738;933.7026;;;;
2020/04/20 06:39:06;;;;;;;19.2;11.8;;;;;;;11.25;72.42676;933.7472;;;;
2020/04/20 06:41:37;;;;;;;16.1;11.4;;;;;;;11.28;72.7627;933.791;;;;
2020/04/20 06:44:09;;;;;;;15.8;11.6;;;;;;;11.27;73.02637;933.6922;;;;
2020/04/20 06:46:39;;;;;;;17.2;11.7;;;;;;;11.17;73.80762;933.7254;;;;
2020/04/20 06:49:09;;;;;;;17.2;12.1;;;;;;;11.23;73.29297;933.8109;;;;
2020/04/20 06:51:34;;;;;;;16.2;12.1;;;;;;;11.16;73.54395;933.8242;;;;
2020/04/20 06:54:05;;;;;;;16.2;11.7;;;;;;;11.24;74.1875;933.8619;;;;
2020/04/20 06:56:30;;;;;;;17.2;11.8;;;;;;;11.28;73.78027;933.8021;;;;
2020/04/20 06:59:01;;;;;;;15.9;11.8;;;;;;;11.4;73.8252;933.8825;;;;
2020/04/20 07:01:31;;;;;;;16;11.4;;;;;;;11.38;72.59668;933.8092;;;;
2020/04/20 07:03:56;;;;;;;17.5;11.8;;;;;;;11.29;73.56641;933.783;;;;
2020/04/20 07:06:23;;;;;;;16.2;12.1;;;;;;;11.36;73.56738;933.8602;;;;
2020/04/20 07:08:54;;;;;;;16.2;12.4;;;;;;;11.46;75.24316;933.8764;;;;
2020/04/20 07:11:22;;;;;;;15.9;12.3;;;;;;;11.53;74.35059;933.9186;;;;
2020/04/20 07:13:47;;;;;;;16.5;11.7;;;;;;;11.57;73.15625;933.8411;;;;
2020/04/20 07:16:16;;;;;;;16.9;12;;;;;;;11.55;72.26074;933.8467;;;;
2020/04/20 07:18:41;;;;;;;15.4;12.1;;;;;;;11.49;72.78613;933.8915;;;;
2020/04/20 07:21:06;;;;;;;16.6;12.5;;;;;;;11.51;72.4834;933.9002;;;;
2020/04/20 07:23:31;;;;;;;16.4;12.8;;;;;;;11.44;73.08887;933.8915;;;;
2020/04/20 07:25:59;;;;;;;15.8;12.4;;;;;;;11.35;73.27832;933.9033;;;;
2020/04/20 07:28:25;;;;;;;15.7;12.1;;;;;;;11.26;73.75488;933.9272;;;;
2020/04/20 07:30:58;;;;;;;15.3;12.2;;;;;;;11.26;74.03125;933.9129;;;;
2020/04/20 07:34:47;;;;;;;15.6;12.4;;;;;;;11.37;73.09961;933.908;;;;
2020/04/20 07:35:49;;;;;;;15.8;12.9;;;;;;;11.46;73.19531;933.9139;;;;
2020/04/20 07:38:18;;;;;;;16.9;12.2;;;;;;;11.46;72.53027;933.9147;;;;
2020/04/20 07:40:42;;;;;;;17.5;12.6;;;;;;;11.47;72.5791;933.8875;;;;
2020/04/20 07:43:09;;;;;;;17.8;13.1;;;;;;;11.43;73.08594;933.8908;;;;
2020/04/20 07:45:34;;;;;;;14.3;12.2;;;;;;;11.41;72.92285;933.8681;;;;
2020/04/20 07:47:59;;;;;;;17;12.4;;;;;;;11.39;72.53125;933.8794;;;;
2020/04/20 07:50:26;;;;;;;18;12.6;;;;;;;11.41;72.23828;933.8565;;;;
2020/04/20 07:52:52;;;;;;;15.2;12.1;;;;;;;11.44;71.88672;933.9147;;;;
2020/04/20 07:55:19;;;;;;;16;12;;;;;;;11.5;72.05664;933.9154;;;;
2020/04/20 07:57:46;;;;;;;17.1;12.2;;;;;;;11.5;72.11426;933.9019;;;;
2020/04/20 08:00:12;;;;;;;18.1;12;;;;;;;11.36;72.62793;933.8547;;;;
2020/04/20 08:02:39;;;;;;;15.7;12.9;;;;;;;11.37;73.61426;933.8865;;;;
2020/04/20 08:05:04;;;;;;;17.7;13;;;;;;;11.37;73.67188;933.9288;;;;
2020/04/20 08:07:36;;;;;;;18.8;13.5;;;;;;;11.43;73.13379;933.8867;;;;
2020/04/20 08:10:04;;;;;;;19.8;13.3;;;;;;;11.25;73.87891;933.9313;;;;
2020/04/20 08:12:29;;;;;;;18.4;12.8;;;;;;;11.39;72.80566;933.8825;;;;
2020/04/20 08:14:55;;;;;;;16.2;12.6;;;;;;;11.36;72.38867;933.8499;;;;
2020/04/20 08:17:20;;;;;;;16;12.8;;;;;;;11.38;72.20898;933.8499;;;;
2020/04/20 08:19:50;;;;;;;18.9;13.3;;;;;;;11.38;73.25977;933.8538;;;;
2020/04/20 08:22:17;;;;;;;16.4;12.7;;;;;;;11.46;73.36523;933.8803;;;;
2020/04/20 08:24:44;;;;;;;17.5;13;;;;;;;11.39;73.7334;933.8466;;;;
2020/04/20 08:27:08;;;;;;;17.4;13;;;;;;;11.39;73.00977;933.8777;;;;
2020/04/20 08:29:41;;;;;;;18.6;12.9;;;;;;;11.39;73.2627;933.8602;;;;
2020/04/20 08:32:11;;;;;;;16;12.6;;;;;;;11.55;72.55762;933.9568;;;;
2020/04/20 08:34:41;;;;;;;17.7;12.7;;;;;;;11.71;72.30859;933.9656;;;;
2020/04/20 08:37:11;;;;;;;14.6;11.9;;;;;;;11.84;71.31055;933.9507;;;;
2020/04/20 08:39:38;;;;;;;18;13.2;;;;;;;11.87;71.88965;933.8979;;;;
2020/04/20 08:42:07;;;;;;;14.5;12;;;;;;;12.04;70.37109;933.9839;;;;
2020/04/20 08:44:34;;;;;;;16.7;12;;;;;;;12.1;70.44824;933.9534;;;;
2020/04/20 08:47:00;;;;;;;17.2;12.6;;;;;;;12.04;71.25293;933.9975;;;;
2020/04/20 08:49:27;;;;;;;17.3;12;;;;;;;12.15;70.2627;933.9891;;;;
2020/04/20 08:51:52;;;;;;;15;11.6;;;;;;;12.23;69.47363;933.9692;;;;
2020/04/20 08:54:21;;;;;;;14.6;11.4;;;;;;;12.27;69.1709;934.0042;;;;
2020/04/20 08:56:52;;;;;;;16.3;12.6;;;;;;;12.23;69.81738;934.033;;;;
2020/04/20 08:59:22;;;;;;;14.5;11.8;;;;;;;12.42;69.85938;933.9511;;;;
2020/04/20 09:01:47;;;;;;;17.9;11.8;;;;;;;12.59;68.5332;933.927;;;;
2020/04/20 09:04:19;;;;;;;17.4;11.7;;;;;;;12.74;67.83301;933.9561;;;;
2020/04/20 09:06:48;;;;;;;15.2;11.3;;;;;;;12.69;67.49316;933.9308;;;;
2020/04/20 09:09:20;;;;;;;15.8;11.4;;;;;;;12.63;68.4834;933.9742;;;;
2020/04/20 09:11:50;;;;;;;17.7;12.1;;;;;;;12.5;69.06934;933.993;;;;
2020/04/20 09:14:18;;;;;;;18.5;11.7;;;;;;;12.39;68.46777;933.9022;;;;
2020/04/20 09:16:44;;;;;;;17.2;11.4;;;;;;;12.62;71.81836;933.9951;;;;
2020/04/20 09:19:10;;;;;;;13.2;10.7;;;;;;;13.09;68.79492;933.9663;;;;
2020/04/20 09:21:38;;;;;;;15.9;10.5;;;;;;;13.58;66.19434;933.96;;;;
2020/04/20 09:24:06;;;;;;;16.5;10.5;;;;;;;13.87;63.70605;933.9818;;;;
2020/04/20 09:26:34;;;;;;;16.4;10.5;;;;;;;14.09;63.6709;933.9853;;;;
2020/04/20 09:29:01;;;;;;;14.2;10.3;;;;;;;14.28;61.78613;933.9803;;;;
2020/04/20 09:31:27;;;;;;;14.7;10;;;;;;;14.33;62.16113;933.9533;;;;
2020/04/20 09:33:52;;;;;;;13.7;10.3;;;;;;;14.12;62.70801;933.9529;;;;
2020/04/20 09:36:17;;;;;;;16;10.3;;;;;;;14.1;62.10547;933.9902;;;;
2020/04/20 09:38:50;;;;;;;14.6;10.7;;;;;;;13.93;62.79297;933.9677;;;;
2020/04/20 09:41:21;;;;;;;16;11.1;;;;;;;13.52;64.55273;933.991;;;;
2020/04/20 09:43:45;;;;;;;16.1;10.9;;;;;;;13.46;64.17578;934.0586;;;;
2020/04/20 09:46:13;;;;;;;13.8;10.2;;;;;;;13.17;64.56934;934.0105;;;;
2020/04/20 09:48:40;;;;;;;16.8;11.3;;;;;;;13.11;65.68555;933.9902;;;;
2020/04/20 09:51:07;;;;;;;15.2;10.6;;;;;;;13.23;64.79688;933.9634;;;;
2020/04/20 09:53:34;;;;;;;13.7;11;;;;;;;13.23;64.37207;933.9067;;;;
2020/04/20 09:55:59;;;;;;;16.1;11.8;;;;;;;13.18;63.83594;933.9316;;;;
2020/04/20 09:58:28;;;;;;;17.4;11.5;;;;;;;13.17;63.91406;933.9258;;;;
2020/04/20 10:00:53;;;;;;;16.2;12.4;;;;;;;13.01;64.79785;933.945;;;;
2020/04/20 10:03:19;;;;;;;17.1;12.6;;;;;;;13.09;64.74121;933.9719;;;;
2020/04/20 10:05:47;;;;;;;16.8;11.8;;;;;;;13.31;64.7041;933.9213;;;;
2020/04/20 10:08:12;;;;;;;14.4;11.7;;;;;;;13.33;63.95996;933.8748;;;;
2020/04/20 10:10:44;;;;;;;16.6;11.4;;;;;;;13.1;65.11133;933.8895;;;;
2020/04/20 10:13:09;;;;;;;14.8;11.6;;;;;;;12.95;65.61621;933.9398;;;;
2020/04/20 10:15:39;;;;;;;17.4;11.3;;;;;;;12.75;64.45996;933.8586;;;;
2020/04/20 10:18:04;;;;;;;14;11.2;;;;;;;12.91;65.18457;933.9377;;;;
2020/04/20 10:20:30;;;;;;;15.6;11.4;;;;;;;12.87;64.375;933.9595;;;;
2020/04/20 10:22:58;;;;;;;15.8;11.3;;;;;;;12.66;66.19238;933.8694;;;;
2020/04/20 10:25:23;;;;;;;14.2;10.9;;;;;;;12.91;64.875;933.9249;;;;
2020/04/20 10:27:48;;;;;;;13.9;10.6;;;;;;;13.04;65.49121;933.8908;;;;
2020/04/20 10:30:13;;;;;;;14.2;10.3;;;;;;;13.34;64.91504;933.9051;;;;
2020/04/20 10:32:39;;;;;;;14.1;10.5;;;;;;;13.95;63.70801;933.9089;;;;
2020/04/20 10:35:10;;;;;;;13.3;10.5;;;;;;;13.81;63.2959;933.8269;;;;
2020/04/20 10:37:35;;;;;;;13.7;9.9;;;;;;;14.04;62.55859;933.9106;;;;
2020/04/20 10:40:05;;;;;;;14.3;10.6;;;;;;;14.21;62.38574;933.9295;;;;
2020/04/20 10:42:30;;;;;;;12.2;10;;;;;;;14.34;61.11426;933.8931;;;;
2020/04/20 10:45:00;;;;;;;11.8;9.6;;;;;;;14.33;60.34082;933.9012;;;;
2020/04/20 10:47:27;;;;;;;15;10.3;;;;;;;14.39;61.69727;933.882;;;;
2020/04/20 10:49:52;;;;;;;14.3;10.3;;;;;;;14.55;60.61328;933.8992;;;;
2020/04/20 10:52:22;;;;;;;14.8;10;;;;;;;14.29;61.50098;933.9249;;;;
2020/04/20 10:54:47;;;;;;;12.3;9.8;;;;;;;14.84;61.03516;933.8461;;;;
2020/04/20 10:57:15;;;;;;;14.2;10.2;;;;;;;14.41;61.19336;933.8049;;;;
2020/04/20 10:59:44;;;;;;;12.5;9.4;;;;;;;14.88;59.84082;933.7894;;;;
2020/04/20 11:02:11;;;;;;;11.3;9.5;;;;;;;14.98;58.73633;933.8728;;;;
2020/04/20 11:04:39;;;;;;;14.3;9.9;;;;;;;14.94;57.7959;933.8895;;;;
2020/04/20 11:07:04;;;;;;;11.6;9.4;;;;;;;14.76;59.35156;933.8156;;;;
2020/04/20 11:09:32;;;;;;;14.1;9.3;;;;;;;14.72;60.52246;933.736;;;;
2020/04/20 11:11:57;;;;;;;13.3;10.1;;;;;;;14.39;61.94043;933.7515;;;;
2020/04/20 11:14:22;;;;;;;13;9.3;;;;;;;14.71;60.35938;933.8195;;;;
2020/04/20 11:16:54;;;;;;;14.4;9.8;;;;;;;14.94;59.39941;933.8519;;;;
2020/04/20 11:19:19;;;;;;;12.3;9.2;;;;;;;14.48;60.44336;933.8174;;;;
2020/04/20 11:21:48;;;;;;;14;9.9;;;;;;;14.11;61.96777;933.8627;;;;
2020/04/20 11:24:19;;;;;;;12.4;10.1;;;;;;;14.17;63.04883;933.8083;;;;
2020/04/20 11:26:47;;;;;;;12;9.2;;;;;;;14.53;60.32324;933.6878;;;;
2020/04/20 11:29:17;;;;;;;11.4;9.1;;;;;;;14.84;58.7168;933.7067;;;;
2020/04/20 11:31:52;;;;;;;12.3;9.5;;;;;;;14.67;59.4668;933.6742;;;;
2020/04/20 11:34:23;;;;;;;11.1;9.3;;;;;;;14.54;59.86426;933.6997;;;;
2020/04/20 11:36:48;;;;;;;12.6;9;;;;;;;14.98;59.79688;933.715;;;;
2020/04/20 11:39:21;;;;;;;11.7;8.8;;;;;;;15.08;58.66797;933.7386;;;;
2020/04/20 11:41:46;;;;;;;12.4;9;;;;;;;15.39;59.75;933.7542;;;;
2020/04/20 11:44:17;;;;;;;13.1;9.4;;;;;;;15.56;59.57617;933.8077;;;;
2020/04/20 11:46:45;;;;;;;11.6;8.8;;;;;;;15.57;56.56348;933.7394;;;;
2020/04/20 11:49:10;;;;;;;13.5;8.5;;;;;;;15.48;55.75488;933.7272;;;;
2020/04/20 11:51:41;;;;;;;12.4;8.9;;;;;;;15.1;57.29883;933.7551;;;;
2020/04/20 11:54:06;;;;;;;13.7;8.7;;;;;;;15.14;56.72656;933.7578;;;;
2020/04/20 11:56:31;;;;;;;10.5;8.4;;;;;;;15.28;57.49414;933.6829;;;;
2020/04/20 11:59:00;;;;;;;13.3;8.5;;;;;;;15.59;58.17188;933.7264;;;;
2020/04/20 12:01:31;;;;;;;11.5;8.4;;;;;;;15.73;57.25391;933.7234;;;;
2020/04/20 12:04:01;;;;;;;13.2;8.6;;;;;;;15.45;56.93945;933.7461;;;;
2020/04/20 12:06:30;;;;;;;11.7;8.2;;;;;;;15.26;57.14648;933.7273;;;;
2020/04/20 12:08:55;;;;;;;12.5;8;;;;;;;15.39;57.23242;933.7324;;;;
2020/04/20 12:11:24;;;;;;;12.3;8.1;;;;;;;15.48;57.02539;933.7272;;;;
2020/04/20 12:13:59;;;;;;;10.2;8;;;;;;;15.2;58.73145;933.7288;;;;
2020/04/20 12:16:24;;;;;;;10.7;7.9;;;;;;;15.33;57.60547;933.6884;;;;
2020/04/20 12:18:50;;;;;;;10.9;7.5;;;;;;;15.37;56.75684;933.7311;;;;
2020/04/20 12:21:15;;;;;;;12.6;8;;;;;;;15.21;57.95898;933.6685;;;;
2020/04/20 12:23:40;;;;;;;11.2;8.5;;;;;;;15;60.14648;933.7067;;;;
2020/04/20 12:26:23;;;;;;;10.8;8.2;;;;;;;14.89;59.18457;933.7075;;;;
2020/04/20 12:28:50;;;;;;;12.3;7.9;;;;;;;14.82;59.36035;933.7453;;;;
2020/04/20 12:31:15;;;;;;;12;8.1;;;;;;;15.11;59.53809;933.682;;;;
2020/04/20 12:33:43;;;;;;;12.7;7.6;;;;;;;15.42;58.50781;933.6664;;;;
2020/04/20 12:36:08;;;;;;;12;7.8;;;;;;;15.67;58.62109;933.6636;;;;
2020/04/20 12:38:55;;;;;;;9.7;7.2;;;;;;;15.71;57.94434;933.5714;;;;
2020/04/20 12:41:20;;;;;;;10.4;7.4;;;;;;;15.51;58.81836;933.6345;;;;
2020/04/20 12:43:49;;;;;;;10.4;7.2;;;;;;;15.69;57.12109;933.5652;;;;
2020/04/20 12:46:14;;;;;;;10;7.2;;;;;;;15.72;57.3457;933.6417;;;;
2020/04/20 12:48:43;;;;;;;10;7.1;;;;;;;15.76;58.77148;933.5897;;;;
2020/04/20 12:51:08;;;;;;;9.5;6.9;;;;;;;15.85;58.57617;933.5571;;;;
2020/04/20 12:53:39;;;;;;;10.5;7.1;;;;;;;16.04;56.58887;933.488;;;;
2020/04/20 12:56:04;;;;;;;9.2;6.8;;;;;;;16.2;56.35547;933.4381;;;;
2020/04/20 12:58:33;;;;;;;10.8;7.1;;;;;;;16.29;56.40039;933.4535;;;;
2020/04/20 13:00:58;;;;;;;10;6.7;;;;;;;16.45;56.36426;933.3887;;;;
2020/04/20 13:03:23;;;;;;;8.7;6.5;;;;;;;16.53;56.60547;933.4827;;;;
2020/04/20 13:05:49;;;;;;;10.9;7.1;;;;;;;16.8;56.45508;933.3875;;;;
2020/04/20 13:08:14;;;;;;;12.8;7.1;;;;;;;16.7;54.72852;933.3535;;;;
2020/04/20 13:10:39;;;;;;;10;6.4;;;;;;;16.73;54.15332;933.2514;;;;
2020/04/20 13:13:04;;;;;;;10.3;6.8;;;;;;;16.83;55.72949;933.2849;;;;
2020/04/20 13:15:29;;;;;;;9.5;6.6;;;;;;;16.84;54.36328;933.2927;;;;
2020/04/20 13:17:54;;;;;;;9.4;6.6;;;;;;;16.81;54.95117;933.1772;;;;
2020/04/20 13:20:24;;;;;;;9.9;6.5;;;;;;;16.84;55.02441;933.1825;;;;
2020/04/20 13:22:49;;;;;;;10.8;6.5;;;;;;;16.56;55.75293;933.1838;;;;
2020/04/20 13:25:19;;;;;;;9.1;6.6;;;;;;;16.3;56.74902;933.0854;;;;
2020/04/20 13:27:47;;;;;;;8.5;6.4;;;;;;;16.4;57.51367;933.1219;;;;
2020/04/20 13:30:12;;;;;;;8.7;6.2;;;;;;;16.37;57.20996;933.0212;;;;
2020/04/20 13:32:42;;;;;;;10;6.3;;;;;;;16.44;56.35156;933.0908;;;;
2020/04/20 13:35:13;;;;;;;7.6;5.6;;;;;;;16.45;56.50293;933.0165;;;;
2020/04/20 13:37:41;;;;;;;8.5;6;;;;;;;16.72;54.82324;933.0305;;;;
2020/04/20 13:40:08;;;;;;;11.8;6.8;;;;;;;16.88;55.13379;932.9805;;;;
2020/04/20 13:42:35;;;;;;;8.4;5.8;;;;;;;16.9;55.19336;932.9414;;;;
2020/04/20 13:45:00;;;;;;;8.3;5.7;;;;;;;16.83;56.25;932.9551;;;;
2020/04/20 13:47:25;;;;;;;8.6;6.2;;;;;;;16.96;54.1582;932.933;;;;
2020/04/20 13:50:02;;;;;;;8.9;5.7;;;;;;;16.97;54.41602;932.9638;;;;
2020/04/20 13:52:32;;;;;;;8.4;6;;;;;;;16.85;54.89844;932.912;;;;
2020/04/20 13:54:57;;;;;;;9.7;5.5;;;;;;;17.01;55.27734;932.8745;;;;
2020/04/20 13:57:24;;;;;;;8.8;5.8;;;;;;;17.08;54.75293;932.8547;;;;
2020/04/20 13:59:53;;;;;;;8.9;5.9;;;;;;;17.01;55.32324;932.8455;;;;
2020/04/20 14:02:20;;;;;;;9.3;6.1;;;;;;;17.15;56.03711;932.7877;;;;
2020/04/20 14:04:51;;;;;;;7.6;5.6;;;;;;;17.46;56.62109;932.6975;;;;
2020/04/20 14:07:25;;;;;;;6.8;4.9;;;;;;;17.85;55.51074;932.6994;;;;
2020/04/20 14:09:51;;;;;;;6.6;5.1;;;;;;;18.36;53.85352;932.6758;;;;
2020/04/20 14:12:21;;;;;;;7.9;5.2;;;;;;;18.53;52.34082;932.591;;;;
2020/04/20 14:14:46;;;;;;;8.5;5.4;;;;;;;18.4;52.23242;932.6246;;;;
2020/04/20 14:17:19;;;;;;;7;5.6;;;;;;;18.22;53.2793;932.5668;;;;
2020/04/20 14:19:49;;;;;;;9;5.6;;;;;;;18.14;54.76953;932.5964;;;;
2020/04/20 14:22:14;;;;;;;9;5.3;;;;;;;18;52.26563;932.613;;;;
2020/04/20 14:24:44;;;;;;;7.1;5.4;;;;;;;17.99;51.68457;932.5432;;;;
2020/04/20 14:27:15;;;;;;;7.2;4.9;;;;;;;17.78;53.08691;932.5617;;;;
2020/04/20 14:29:51;;;;;;;10.7;5.5;;;;;;;17.66;54.01367;932.5573;;;;
2020/04/20 14:32:22;;;;;;;8.8;4.9;;;;;;;17.68;52.78418;932.4813;;;;
2020/04/20 14:35:02;;;;;;;7.8;5;;;;;;;17.31;54.51465;932.4686;;;;
2020/04/20 14:37:27;;;;;;;6.6;5;;;;;;;17.33;54.10059;932.4841;;;;
2020/04/20 14:39:52;;;;;;;7.4;5;;;;;;;17.35;55.32031;932.449;;;;
2020/04/20 14:42:17;;;;;;;8.4;5;;;;;;;17.57;53.29395;932.4299;;;;
2020/04/20 14:44:42;;;;;;;6.8;5.1;;;;;;;17.61;52.77734;932.415;;;;
2020/04/20 14:47:14;;;;;;;8.3;5.1;;;;;;;17.59;52.34473;932.459;;;;
2020/04/20 14:49:39;;;;;;;9.3;5.1;;;;;;;17.76;53.22461;932.4244;;;;
2020/04/20 14:52:09;;;;;;;7.7;4.8;;;;;;;17.97;52.33301;932.3318;;;;
2020/04/20 14:54:34;;;;;;;8.2;4.7;;;;;;;18.24;51.84082;932.365;;;;
2020/04/20 14:57:04;;;;;;;10.1;4.7;;;;;;;18;52.85742;932.2957;;;;
2020/04/20 14:59:35;;;;;;;7.5;4.7;;;;;;;17.86;52.78418;932.356;;;;
2020/04/20 15:02:00;;;;;;;7.3;5;;;;;;;17.87;53.15723;932.329;;;;
2020/04/20 15:04:25;;;;;;;8.2;4.7;;;;;;;18.02;52.87207;932.3041;;;;
2020/04/20 15:06:51;;;;;;;8.4;4.4;;;;;;;18.18;52.72852;932.2964;;;;
2020/04/20 15:09:16;;;;;;;6.5;4.5;;;;;;;18.37;51.28711;932.2522;;;;
2020/04/20 15:11:41;;;;;;;8.4;4.1;;;;;;;18.36;52.72656;932.2228;;;;
2020/04/20 15:14:11;;;;;;;8.2;4.1;;;;;;;18.38;52.24121;932.247;;;;
2020/04/20 15:16:38;;;;;;;7.1;4.2;;;;;;;18.37;52.64844;932.2642;;;;
2020/04/20 15:19:12;;;;;;;5.5;4.1;;;;;;;18.13;52.1416;932.2695;;;;
2020/04/20 15:21:40;;;;;;;5.9;3.8;;;;;;;18.21;51.22266;932.2808;;;;
2020/04/20 15:24:14;;;;;;;6.9;3.8;;;;;;;18.05;52.75977;932.1889;;;;
2020/04/20 15:26:48;;;;;;;10.3;4.1;;;;;;;18.01;52.84766;932.1987;;;;
2020/04/20 15:29:20;;;;;;;8.9;4.1;;;;;;;18.07;51.29883;932.2028;;;;